sensor_id;sensor_type;location;lat;lon;timestamp;P1;durP1;ratioP1;P2;durP2;ratioP2
25870;SDS011;13689;48.590;7.752;2023-12-22T00:01:26;11.60;;;2.00;;
25870;SDS011;13689;48.590;7.752;2023-12-22T00:03:52;12.13;;;1.70;;
25870;SDS011;13689;48.590;7.752;2023-12-22T00:06:17;10.20;;;2.13;;
25870;SDS011;13689;48.590;7.752;2023-12-22T00:08:43;13.45;;;1.70;;
25870;SDS011;13689;48.590;7.752;2023-12-22T00:11:08;9.65;;;1.52;;
25870;SDS011;13689;48.590;7.752;2023-12-22T00:13:34;17.00;;;3.63;;
25870;SDS011;13689;48.590;7.752;2023-12-22T00:16:00;8.25;;;1.90;;
25870;SDS011;13689;48.590;7.752;2023-12-22T00:18:26;16.00;;;2.08;;
25870;SDS011;13689;48.590;7.752;2023-12-22T00:20:52;15.85;;;1.85;;
25870;SDS011;13689;48.590;7.752;2023-12-22T00:23:18;11.77;;;1.70;;
25870;SDS011;13689;48.590;7.752;2023-12-22T00:25:43;3.17;;;0.95;;
25870;SDS011;13689;48.590;7.752;2023-12-22T00:28:09;8.65;;;1.10;;
25870;SDS011;13689;48.590;7.752;2023-12-22T00:30:34;11.68;;;1.08;;
25870;SDS011;13689;48.590;7.752;2023-12-22T00:33:00;8.52;;;1.17;;
25870;SDS011;13689;48.590;7.752;2023-12-22T00:35:26;4.50;;;1.05;;
25870;SDS011;13689;48.590;7.752;2023-12-22T00:37:51;6.28;;;1.10;;
25870;SDS011;13689;48.590;7.752;2023-12-22T00:40:18;10.02;;;1.20;;
25870;SDS011;13689;48.590;7.752;2023-12-22T00:42:43;2.53;;;0.90;;
25870;SDS011;13689;48.590;7.752;2023-12-22T00:45:09;13.55;;;1.60;;
25870;SDS011;13689;48.590;7.752;2023-12-22T00:47:35;10.27;;;1.40;;
25870;SDS011;13689;48.590;7.752;2023-12-22T00:50:01;9.20;;;1.42;;
25870;SDS011;13689;48.590;7.752;2023-12-22T00:52:29;11.52;;;1.42;;
25870;SDS011;13689;48.590;7.752;2023-12-22T00:54:55;10.35;;;1.60;;
25870;SDS011;13689;48.590;7.752;2023-12-22T00:57:20;14.05;;;1.80;;
25870;SDS011;13689;48.590;7.752;2023-12-22T00:59:46;7.75;;;1.80;;
25870;SDS011;13689;48.590;7.752;2023-12-22T01:02:16;15.05;;;1.60;;
25870;SDS011;13689;48.590;7.752;2023-12-22T01:04:42;7.50;;;1.33;;
25870;SDS011;13689;48.590;7.752;2023-12-22T01:07:08;14.52;;;2.05;;
25870;SDS011;13689;48.590;7.752;2023-12-22T01:09:34;13.73;;;2.20;;
25870;SDS011;13689;48.590;7.752;2023-12-22T01:11:59;13.15;;;1.70;;
25870;SDS011;13689;48.590;7.752;2023-12-22T01:16:53;16.02;;;1.90;;
25870;SDS011;13689;48.590;7.752;2023-12-22T01:19:19;11.10;;;1.42;;
25870;SDS011;13689;48.590;7.752;2023-12-22T01:21:45;9.55;;;0.80;;
25870;SDS011;13689;48.590;7.752;2023-12-22T01:24:11;5.82;;;1.08;;
25870;SDS011;13689;48.590;7.752;2023-12-22T01:26:36;3.42;;;0.60;;
25870;SDS011;13689;48.590;7.752;2023-12-22T01:29:02;7.95;;;0.80;;
25870;SDS011;13689;48.590;7.752;2023-12-22T01:31:28;9.27;;;0.90;;
25870;SDS011;13689;48.590;7.752;2023-12-22T01:33:53;6.47;;;0.90;;
25870;SDS011;13689;48.590;7.752;2023-12-22T01:36:19;12.27;;;1.35;;
25870;SDS011;13689;48.590;7.752;2023-12-22T01:38:44;10.27;;;1.30;;
25870;SDS011;13689;48.590;7.752;2023-12-22T01:41:10;6.47;;;0.90;;
25870;SDS011;13689;48.590;7.752;2023-12-22T01:43:36;6.68;;;1.13;;
25870;SDS011;13689;48.590;7.752;2023-12-22T01:46:01;7.18;;;1.23;;
25870;SDS011;13689;48.590;7.752;2023-12-22T01:48:27;19.08;;;1.63;;
25870;SDS011;13689;48.590;7.752;2023-12-22T01:50:54;12.43;;;1.92;;
25870;SDS011;13689;48.590;7.752;2023-12-22T01:53:21;10.50;;;1.55;;
25870;SDS011;13689;48.590;7.752;2023-12-22T01:58:15;18.60;;;1.40;;
25870;SDS011;13689;48.590;7.752;2023-12-22T02:00:42;12.77;;;2.03;;
25870;SDS011;13689;48.590;7.752;2023-12-22T02:03:08;9.38;;;1.55;;
25870;SDS011;13689;48.590;7.752;2023-12-22T02:05:33;14.65;;;1.73;;
25870;SDS011;13689;48.590;7.752;2023-12-22T02:07:59;9.60;;;2.38;;
25870;SDS011;13689;48.590;7.752;2023-12-22T02:10:25;14.35;;;1.38;;
25870;SDS011;13689;48.590;7.752;2023-12-22T02:12:51;13.48;;;1.50;;
25870;SDS011;13689;48.590;7.752;2023-12-22T02:15:16;17.77;;;2.25;;
25870;SDS011;13689;48.590;7.752;2023-12-22T02:17:51;13.38;;;1.67;;
25870;SDS011;13689;48.590;7.752;2023-12-22T02:20:28;16.77;;;1.83;;
25870;SDS011;13689;48.590;7.752;2023-12-22T02:22:54;17.92;;;1.70;;
25870;SDS011;13689;48.590;7.752;2023-12-22T02:25:20;12.27;;;1.50;;
25870;SDS011;13689;48.590;7.752;2023-12-22T02:28:01;15.52;;;1.77;;
25870;SDS011;13689;48.590;7.752;2023-12-22T02:33:33;14.32;;;1.70;;
25870;SDS011;13689;48.590;7.752;2023-12-22T02:36:02;17.13;;;2.23;;
25870;SDS011;13689;48.590;7.752;2023-12-22T02:38:29;14.07;;;1.48;;
25870;SDS011;13689;48.590;7.752;2023-12-22T02:40:56;12.98;;;1.52;;
25870;SDS011;13689;48.590;7.752;2023-12-22T02:43:22;16.95;;;1.90;;
25870;SDS011;13689;48.590;7.752;2023-12-22T02:45:51;17.08;;;1.60;;
25870;SDS011;13689;48.590;7.752;2023-12-22T02:48:17;10.50;;;1.92;;
25870;SDS011;13689;48.590;7.752;2023-12-22T02:50:42;16.45;;;1.55;;
25870;SDS011;13689;48.590;7.752;2023-12-22T02:53:08;11.82;;;1.52;;
25870;SDS011;13689;48.590;7.752;2023-12-22T02:55:34;14.50;;;1.95;;
25870;SDS011;13689;48.590;7.752;2023-12-22T02:57:59;16.23;;;2.03;;
25870;SDS011;13689;48.590;7.752;2023-12-22T03:00:25;17.48;;;1.95;;
25870;SDS011;13689;48.590;7.752;2023-12-22T03:02:50;15.73;;;1.67;;
25870;SDS011;13689;48.590;7.752;2023-12-22T03:05:16;9.60;;;2.63;;
25870;SDS011;13689;48.590;7.752;2023-12-22T03:07:41;14.82;;;1.60;;
25870;SDS011;13689;48.590;7.752;2023-12-22T03:10:07;9.20;;;1.38;;
25870;SDS011;13689;48.590;7.752;2023-12-22T03:12:33;13.82;;;2.03;;
25870;SDS011;13689;48.590;7.752;2023-12-22T03:14:58;8.35;;;1.40;;
25870;SDS011;13689;48.590;7.752;2023-12-22T03:17:24;6.68;;;0.93;;
25870;SDS011;13689;48.590;7.752;2023-12-22T03:19:49;7.43;;;1.15;;
25870;SDS011;13689;48.590;7.752;2023-12-22T03:22:15;13.68;;;2.40;;
25870;SDS011;13689;48.590;7.752;2023-12-22T03:24:40;16.58;;;1.80;;
25870;SDS011;13689;48.590;7.752;2023-12-22T03:27:06;7.57;;;1.20;;
25870;SDS011;13689;48.590;7.752;2023-12-22T03:29:32;19.85;;;2.00;;
25870;SDS011;13689;48.590;7.752;2023-12-22T03:31:57;20.52;;;1.88;;
25870;SDS011;13689;48.590;7.752;2023-12-22T03:34:23;18.25;;;2.03;;
25870;SDS011;13689;48.590;7.752;2023-12-22T03:36:48;13.30;;;1.85;;
25870;SDS011;13689;48.590;7.752;2023-12-22T03:39:14;15.15;;;1.63;;
25870;SDS011;13689;48.590;7.752;2023-12-22T03:41:41;24.17;;;1.95;;
25870;SDS011;13689;48.590;7.752;2023-12-22T03:44:06;19.27;;;2.63;;
25870;SDS011;13689;48.590;7.752;2023-12-22T03:46:32;23.92;;;3.13;;
25870;SDS011;13689;48.590;7.752;2023-12-22T03:48:58;21.15;;;2.30;;
25870;SDS011;13689;48.590;7.752;2023-12-22T03:51:23;17.73;;;1.92;;
25870;SDS011;13689;48.590;7.752;2023-12-22T03:53:49;18.92;;;2.53;;
25870;SDS011;13689;48.590;7.752;2023-12-22T03:56:14;19.35;;;1.73;;
25870;SDS011;13689;48.590;7.752;2023-12-22T03:58:40;31.05;;;3.25;;
25870;SDS011;13689;48.590;7.752;2023-12-22T04:01:05;22.52;;;2.38;;
25870;SDS011;13689;48.590;7.752;2023-12-22T04:03:34;18.77;;;2.25;;
25870;SDS011;13689;48.590;7.752;2023-12-22T04:06:03;16.55;;;2.28;;
25870;SDS011;13689;48.590;7.752;2023-12-22T04:08:29;14.10;;;1.55;;
25870;SDS011;13689;48.590;7.752;2023-12-22T04:10:54;20.23;;;2.08;;
25870;SDS011;13689;48.590;7.752;2023-12-22T04:13:20;21.20;;;1.63;;
25870;SDS011;13689;48.590;7.752;2023-12-22T04:15:45;16.30;;;2.03;;
25870;SDS011;13689;48.590;7.752;2023-12-22T04:18:11;18.13;;;1.85;;
25870;SDS011;13689;48.590;7.752;2023-12-22T04:20:36;15.57;;;1.55;;
25870;SDS011;13689;48.590;7.752;2023-12-22T04:23:02;27.20;;;2.53;;
25870;SDS011;13689;48.590;7.752;2023-12-22T04:25:28;19.63;;;2.13;;
25870;SDS011;13689;48.590;7.752;2023-12-22T04:27:54;15.57;;;2.15;;
25870;SDS011;13689;48.590;7.752;2023-12-22T04:30:19;27.27;;;2.55;;
25870;SDS011;13689;48.590;7.752;2023-12-22T04:32:45;24.08;;;2.42;;
25870;SDS011;13689;48.590;7.752;2023-12-22T04:35:10;18.13;;;2.20;;
25870;SDS011;13689;48.590;7.752;2023-12-22T04:37:36;20.55;;;2.72;;
25870;SDS011;13689;48.590;7.752;2023-12-22T04:40:01;21.73;;;2.25;;
25870;SDS011;13689;48.590;7.752;2023-12-22T04:42:27;19.85;;;1.98;;
25870;SDS011;13689;48.590;7.752;2023-12-22T04:44:53;14.68;;;1.88;;
25870;SDS011;13689;48.590;7.752;2023-12-22T04:47:19;22.90;;;1.90;;
25870;SDS011;13689;48.590;7.752;2023-12-22T04:49:45;19.70;;;2.17;;
25870;SDS011;13689;48.590;7.752;2023-12-22T04:52:11;17.92;;;2.80;;
25870;SDS011;13689;48.590;7.752;2023-12-22T04:54:37;13.35;;;1.77;;
25870;SDS011;13689;48.590;7.752;2023-12-22T04:57:03;16.50;;;3.05;;
25870;SDS011;13689;48.590;7.752;2023-12-22T04:59:29;14.90;;;1.40;;
25870;SDS011;13689;48.590;7.752;2023-12-22T05:01:55;14.43;;;1.85;;
25870;SDS011;13689;48.590;7.752;2023-12-22T05:04:21;14.60;;;2.42;;
25870;SDS011;13689;48.590;7.752;2023-12-22T05:06:47;22.70;;;2.78;;
25870;SDS011;13689;48.590;7.752;2023-12-22T05:09:13;19.42;;;2.15;;
25870;SDS011;13689;48.590;7.752;2023-12-22T05:11:39;13.82;;;2.25;;
25870;SDS011;13689;48.590;7.752;2023-12-22T05:14:05;30.52;;;2.72;;
25870;SDS011;13689;48.590;7.752;2023-12-22T05:16:31;15.50;;;1.92;;
25870;SDS011;13689;48.590;7.752;2023-12-22T05:19:00;15.82;;;1.95;;
25870;SDS011;13689;48.590;7.752;2023-12-22T05:21:26;18.25;;;2.92;;
25870;SDS011;13689;48.590;7.752;2023-12-22T05:23:53;21.77;;;2.17;;
25870;SDS011;13689;48.590;7.752;2023-12-22T05:26:22;10.57;;;2.10;;
25870;SDS011;13689;48.590;7.752;2023-12-22T05:28:48;18.98;;;3.88;;
25870;SDS011;13689;48.590;7.752;2023-12-22T05:31:14;15.90;;;2.13;;
25870;SDS011;13689;48.590;7.752;2023-12-22T05:33:41;17.33;;;1.85;;
25870;SDS011;13689;48.590;7.752;2023-12-22T05:36:06;9.23;;;1.60;;
25870;SDS011;13689;48.590;7.752;2023-12-22T05:38:36;15.77;;;2.38;;
25870;SDS011;13689;48.590;7.752;2023-12-22T05:41:05;13.77;;;1.90;;
25870;SDS011;13689;48.590;7.752;2023-12-22T05:43:31;11.77;;;1.58;;
25870;SDS011;13689;48.590;7.752;2023-12-22T05:45:58;18.83;;;2.00;;
25870;SDS011;13689;48.590;7.752;2023-12-22T05:48:24;17.52;;;1.85;;
25870;SDS011;13689;48.590;7.752;2023-12-22T05:50:53;15.43;;;1.73;;
25870;SDS011;13689;48.590;7.752;2023-12-22T05:53:22;17.48;;;1.75;;
25870;SDS011;13689;48.590;7.752;2023-12-22T05:55:48;15.50;;;2.17;;
25870;SDS011;13689;48.590;7.752;2023-12-22T05:58:13;15.50;;;2.15;;
25870;SDS011;13689;48.590;7.752;2023-12-22T06:00:39;14.43;;;2.25;;
25870;SDS011;13689;48.590;7.752;2023-12-22T06:03:05;14.93;;;1.88;;
25870;SDS011;13689;48.590;7.752;2023-12-22T06:05:30;12.75;;;1.63;;
25870;SDS011;13689;48.590;7.752;2023-12-22T06:07:56;13.82;;;1.92;;
25870;SDS011;13689;48.590;7.752;2023-12-22T06:10:22;20.40;;;3.08;;
25870;SDS011;13689;48.590;7.752;2023-12-22T06:12:47;10.30;;;1.42;;
25870;SDS011;13689;48.590;7.752;2023-12-22T06:15:13;16.60;;;1.55;;
25870;SDS011;13689;48.590;7.752;2023-12-22T06:17:38;13.05;;;2.25;;
25870;SDS011;13689;48.590;7.752;2023-12-22T06:20:04;11.98;;;1.83;;
25870;SDS011;13689;48.590;7.752;2023-12-22T06:22:31;14.63;;;1.95;;
25870;SDS011;13689;48.590;7.752;2023-12-22T06:24:57;13.88;;;1.90;;
25870;SDS011;13689;48.590;7.752;2023-12-22T06:27:23;16.23;;;2.53;;
25870;SDS011;13689;48.590;7.752;2023-12-22T06:29:48;11.43;;;1.83;;
25870;SDS011;13689;48.590;7.752;2023-12-22T06:32:14;9.73;;;1.80;;
25870;SDS011;13689;48.590;7.752;2023-12-22T06:34:42;14.57;;;1.77;;
25870;SDS011;13689;48.590;7.752;2023-12-22T06:37:07;17.35;;;2.10;;
25870;SDS011;13689;48.590;7.752;2023-12-22T06:39:33;13.20;;;1.70;;
25870;SDS011;13689;48.590;7.752;2023-12-22T06:41:58;11.52;;;1.45;;
25870;SDS011;13689;48.590;7.752;2023-12-22T06:44:24;11.45;;;1.42;;
25870;SDS011;13689;48.590;7.752;2023-12-22T06:46:51;15.85;;;2.60;;
25870;SDS011;13689;48.590;7.752;2023-12-22T06:49:17;12.30;;;1.60;;
25870;SDS011;13689;48.590;7.752;2023-12-22T06:51:43;9.60;;;1.75;;
25870;SDS011;13689;48.590;7.752;2023-12-22T06:54:08;11.93;;;2.10;;
25870;SDS011;13689;48.590;7.752;2023-12-22T06:56:34;17.52;;;2.05;;
25870;SDS011;13689;48.590;7.752;2023-12-22T06:59:00;8.05;;;2.25;;
25870;SDS011;13689;48.590;7.752;2023-12-22T07:01:27;12.15;;;1.88;;
25870;SDS011;13689;48.590;7.752;2023-12-22T07:03:54;12.07;;;1.67;;
25870;SDS011;13689;48.590;7.752;2023-12-22T07:06:21;17.15;;;2.00;;
25870;SDS011;13689;48.590;7.752;2023-12-22T07:11:28;17.73;;;1.95;;
25870;SDS011;13689;48.590;7.752;2023-12-22T07:13:54;14.40;;;1.80;;
25870;SDS011;13689;48.590;7.752;2023-12-22T07:16:20;8.88;;;1.50;;
25870;SDS011;13689;48.590;7.752;2023-12-22T07:18:45;18.90;;;1.83;;
25870;SDS011;13689;48.590;7.752;2023-12-22T07:21:15;15.95;;;2.42;;
25870;SDS011;13689;48.590;7.752;2023-12-22T07:23:43;12.55;;;1.85;;
25870;SDS011;13689;48.590;7.752;2023-12-22T07:26:09;9.85;;;1.63;;
25870;SDS011;13689;48.590;7.752;2023-12-22T07:28:35;19.50;;;2.72;;
25870;SDS011;13689;48.590;7.752;2023-12-22T07:31:00;13.07;;;2.55;;
25870;SDS011;13689;48.590;7.752;2023-12-22T07:33:26;13.02;;;1.70;;
25870;SDS011;13689;48.590;7.752;2023-12-22T07:35:51;17.25;;;1.48;;
25870;SDS011;13689;48.590;7.752;2023-12-22T07:38:17;13.52;;;2.22;;
25870;SDS011;13689;48.590;7.752;2023-12-22T07:40:43;13.15;;;2.13;;
25870;SDS011;13689;48.590;7.752;2023-12-22T07:43:08;12.75;;;2.05;;
25870;SDS011;13689;48.590;7.752;2023-12-22T07:45:34;9.55;;;1.90;;
25870;SDS011;13689;48.590;7.752;2023-12-22T07:47:59;13.30;;;2.03;;
25870;SDS011;13689;48.590;7.752;2023-12-22T07:50:25;15.27;;;2.30;;
25870;SDS011;13689;48.590;7.752;2023-12-22T07:52:51;14.05;;;1.90;;
25870;SDS011;13689;48.590;7.752;2023-12-22T07:55:16;29.40;;;3.58;;
25870;SDS011;13689;48.590;7.752;2023-12-22T07:57:42;13.48;;;2.05;;
25870;SDS011;13689;48.590;7.752;2023-12-22T08:00:08;16.83;;;2.15;;
25870;SDS011;13689;48.590;7.752;2023-12-22T08:02:35;10.25;;;1.45;;
25870;SDS011;13689;48.590;7.752;2023-12-22T08:05:01;19.95;;;2.47;;
25870;SDS011;13689;48.590;7.752;2023-12-22T08:07:26;13.07;;;2.40;;
25870;SDS011;13689;48.590;7.752;2023-12-22T08:09:52;14.73;;;2.05;;
25870;SDS011;13689;48.590;7.752;2023-12-22T08:12:17;13.52;;;3.00;;
25870;SDS011;13689;48.590;7.752;2023-12-22T08:14:43;19.98;;;2.28;;
25870;SDS011;13689;48.590;7.752;2023-12-22T08:17:09;20.27;;;2.25;;
25870;SDS011;13689;48.590;7.752;2023-12-22T08:19:36;16.05;;;1.67;;
25870;SDS011;13689;48.590;7.752;2023-12-22T08:22:02;21.88;;;2.10;;
25870;SDS011;13689;48.590;7.752;2023-12-22T08:24:28;16.10;;;2.10;;
25870;SDS011;13689;48.590;7.752;2023-12-22T08:26:53;17.92;;;2.13;;
25870;SDS011;13689;48.590;7.752;2023-12-22T08:29:19;17.75;;;3.00;;
25870;SDS011;13689;48.590;7.752;2023-12-22T08:31:44;16.05;;;2.80;;
25870;SDS011;13689;48.590;7.752;2023-12-22T08:34:10;19.88;;;2.08;;
25870;SDS011;13689;48.590;7.752;2023-12-22T08:36:36;18.75;;;2.40;;
25870;SDS011;13689;48.590;7.752;2023-12-22T08:39:01;11.90;;;2.38;;
25870;SDS011;13689;48.590;7.752;2023-12-22T08:41:28;15.32;;;2.35;;
25870;SDS011;13689;48.590;7.752;2023-12-22T08:43:54;16.73;;;2.45;;
25870;SDS011;13689;48.590;7.752;2023-12-22T08:46:19;14.43;;;2.17;;
25870;SDS011;13689;48.590;7.752;2023-12-22T08:48:45;21.52;;;2.65;;
25870;SDS011;13689;48.590;7.752;2023-12-22T08:51:10;15.00;;;2.13;;
25870;SDS011;13689;48.590;7.752;2023-12-22T08:53:36;22.25;;;2.40;;
25870;SDS011;13689;48.590;7.752;2023-12-22T08:56:02;23.30;;;2.22;;
25870;SDS011;13689;48.590;7.752;2023-12-22T08:58:28;14.82;;;2.50;;
25870;SDS011;13689;48.590;7.752;2023-12-22T09:00:55;20.60;;;2.50;;
25870;SDS011;13689;48.590;7.752;2023-12-22T09:03:21;20.15;;;2.45;;
25870;SDS011;13689;48.590;7.752;2023-12-22T09:05:47;17.88;;;3.08;;
25870;SDS011;13689;48.590;7.752;2023-12-22T09:08:12;17.95;;;2.08;;
25870;SDS011;13689;48.590;7.752;2023-12-22T09:10:38;13.98;;;2.08;;
25870;SDS011;13689;48.590;7.752;2023-12-22T09:13:04;13.27;;;1.95;;
25870;SDS011;13689;48.590;7.752;2023-12-22T09:15:29;18.52;;;2.83;;
25870;SDS011;13689;48.590;7.752;2023-12-22T09:17:55;22.45;;;3.15;;
25870;SDS011;13689;48.590;7.752;2023-12-22T09:20:23;11.32;;;2.10;;
25870;SDS011;13689;48.590;7.752;2023-12-22T09:22:48;21.60;;;3.00;;
25870;SDS011;13689;48.590;7.752;2023-12-22T09:25:14;18.63;;;2.83;;
25870;SDS011;13689;48.590;7.752;2023-12-22T09:27:40;16.52;;;1.90;;
25870;SDS011;13689;48.590;7.752;2023-12-22T09:30:06;13.27;;;1.90;;
25870;SDS011;13689;48.590;7.752;2023-12-22T09:32:32;25.10;;;2.67;;
25870;SDS011;13689;48.590;7.752;2023-12-22T09:34:58;17.60;;;2.35;;
25870;SDS011;13689;48.590;7.752;2023-12-22T09:37:25;16.52;;;1.90;;
25870;SDS011;13689;48.590;7.752;2023-12-22T09:39:51;13.30;;;2.60;;
25870;SDS011;13689;48.590;7.752;2023-12-22T09:42:17;20.58;;;2.20;;
25870;SDS011;13689;48.590;7.752;2023-12-22T09:44:43;11.27;;;2.70;;
25870;SDS011;13689;48.590;7.752;2023-12-22T09:47:11;11.90;;;2.17;;
25870;SDS011;13689;48.590;7.752;2023-12-22T09:49:38;13.80;;;2.65;;
25870;SDS011;13689;48.590;7.752;2023-12-22T09:52:06;15.65;;;2.25;;
25870;SDS011;13689;48.590;7.752;2023-12-22T09:54:32;18.00;;;2.20;;
25870;SDS011;13689;48.590;7.752;2023-12-22T09:56:59;18.77;;;2.63;;
25870;SDS011;13689;48.590;7.752;2023-12-22T09:59:25;11.13;;;2.13;;
25870;SDS011;13689;48.590;7.752;2023-12-22T10:01:55;13.07;;;2.53;;
25870;SDS011;13689;48.590;7.752;2023-12-22T10:04:21;17.48;;;2.35;;
25870;SDS011;13689;48.590;7.752;2023-12-22T10:06:47;16.92;;;2.45;;
25870;SDS011;13689;48.590;7.752;2023-12-22T10:09:14;19.08;;;3.05;;
25870;SDS011;13689;48.590;7.752;2023-12-22T10:11:45;15.35;;;1.90;;
25870;SDS011;13689;48.590;7.752;2023-12-22T10:14:17;15.15;;;2.50;;
25870;SDS011;13689;48.590;7.752;2023-12-22T10:16:48;16.77;;;2.25;;
25870;SDS011;13689;48.590;7.752;2023-12-22T10:19:17;14.02;;;2.08;;
25870;SDS011;13689;48.590;7.752;2023-12-22T10:21:43;20.92;;;2.63;;
25870;SDS011;13689;48.590;7.752;2023-12-22T10:24:36;20.30;;;1.88;;
25870;SDS011;13689;48.590;7.752;2023-12-22T10:27:04;16.25;;;2.00;;
25870;SDS011;13689;48.590;7.752;2023-12-22T10:29:30;11.93;;;1.52;;
25870;SDS011;13689;48.590;7.752;2023-12-22T10:31:57;9.73;;;1.63;;
25870;SDS011;13689;48.590;7.752;2023-12-22T10:34:23;17.40;;;2.05;;
25870;SDS011;13689;48.590;7.752;2023-12-22T10:36:49;10.98;;;2.70;;
25870;SDS011;13689;48.590;7.752;2023-12-22T10:39:14;13.75;;;1.70;;
25870;SDS011;13689;48.590;7.752;2023-12-22T10:41:40;11.65;;;1.60;;
25870;SDS011;13689;48.590;7.752;2023-12-22T10:44:06;11.25;;;1.80;;
25870;SDS011;13689;48.590;7.752;2023-12-22T10:46:31;13.57;;;2.03;;
25870;SDS011;13689;48.590;7.752;2023-12-22T10:49:00;13.73;;;2.00;;
25870;SDS011;13689;48.590;7.752;2023-12-22T10:51:28;14.25;;;3.45;;
25870;SDS011;13689;48.590;7.752;2023-12-22T10:53:57;13.90;;;1.65;;
25870;SDS011;13689;48.590;7.752;2023-12-22T10:56:23;9.57;;;1.58;;
25870;SDS011;13689;48.590;7.752;2023-12-22T10:58:49;9.63;;;1.50;;
25870;SDS011;13689;48.590;7.752;2023-12-22T11:01:17;9.23;;;1.05;;
25870;SDS011;13689;48.590;7.752;2023-12-22T11:03:45;10.52;;;2.08;;
25870;SDS011;13689;48.590;7.752;2023-12-22T11:06:15;11.43;;;1.50;;
25870;SDS011;13689;48.590;7.752;2023-12-22T11:08:42;6.13;;;1.60;;
25870;SDS011;13689;48.590;7.752;2023-12-22T11:11:22;6.07;;;1.40;;
25870;SDS011;13689;48.590;7.752;2023-12-22T11:13:54;4.72;;;1.17;;
25870;SDS011;13689;48.590;7.752;2023-12-22T11:16:22;6.95;;;1.25;;
25870;SDS011;13689;48.590;7.752;2023-12-22T11:18:49;6.93;;;0.90;;
25870;SDS011;13689;48.590;7.752;2023-12-22T11:21:19;4.28;;;1.05;;
25870;SDS011;13689;48.590;7.752;2023-12-22T11:23:45;7.88;;;1.35;;
25870;SDS011;13689;48.590;7.752;2023-12-22T11:26:12;9.32;;;1.25;;
25870;SDS011;13689;48.590;7.752;2023-12-22T11:28:40;5.53;;;1.30;;
25870;SDS011;13689;48.590;7.752;2023-12-22T11:31:07;10.60;;;1.42;;
25870;SDS011;13689;48.590;7.752;2023-12-22T11:33:36;6.25;;;1.30;;
25870;SDS011;13689;48.590;7.752;2023-12-22T11:36:03;5.45;;;1.17;;
25870;SDS011;13689;48.590;7.752;2023-12-22T11:38:30;9.60;;;1.60;;
25870;SDS011;13689;48.590;7.752;2023-12-22T11:40:56;7.22;;;1.40;;
25870;SDS011;13689;48.590;7.752;2023-12-22T11:43:24;2.88;;;1.05;;
25870;SDS011;13689;48.590;7.752;2023-12-22T11:45:50;6.90;;;1.38;;
25870;SDS011;13689;48.590;7.752;2023-12-22T11:48:16;3.50;;;1.30;;
25870;SDS011;13689;48.590;7.752;2023-12-22T11:50:42;9.02;;;2.22;;
25870;SDS011;13689;48.590;7.752;2023-12-22T11:53:22;7.75;;;1.35;;
25870;SDS011;13689;48.590;7.752;2023-12-22T12:01:07;3.10;;;0.80;;
25870;SDS011;13689;48.590;7.752;2023-12-22T12:03:35;2.40;;;1.17;;
25870;SDS011;13689;48.590;7.752;2023-12-22T12:09:01;2.15;;;1.00;;
25870;SDS011;13689;48.590;7.752;2023-12-22T12:14:21;6.32;;;1.48;;
25870;SDS011;13689;48.590;7.752;2023-12-22T12:16:54;5.47;;;1.13;;
25870;SDS011;13689;48.590;7.752;2023-12-22T12:19:30;4.65;;;1.20;;
25870;SDS011;13689;48.590;7.752;2023-12-22T12:21:58;0.80;;;0.50;;
25870;SDS011;13689;48.590;7.752;2023-12-22T12:24:23;2.03;;;0.70;;
25870;SDS011;13689;48.590;7.752;2023-12-22T12:26:50;3.42;;;0.93;;
25870;SDS011;13689;48.590;7.752;2023-12-22T12:29:16;3.53;;;0.70;;
25870;SDS011;13689;48.590;7.752;2023-12-22T12:31:42;2.58;;;0.80;;
25870;SDS011;13689;48.590;7.752;2023-12-22T12:34:10;4.13;;;1.05;;
25870;SDS011;13689;48.590;7.752;2023-12-22T12:36:35;21.98;;;8.52;;
25870;SDS011;13689;48.590;7.752;2023-12-22T12:39:06;2.07;;;1.10;;
25870;SDS011;13689;48.590;7.752;2023-12-22T12:41:36;11.90;;;3.72;;
25870;SDS011;13689;48.590;7.752;2023-12-22T12:44:06;2.00;;;0.85;;
25870;SDS011;13689;48.590;7.752;2023-12-22T12:46:36;1.07;;;0.50;;
25870;SDS011;13689;48.590;7.752;2023-12-22T12:49:06;1.98;;;0.50;;
25870;SDS011;13689;48.590;7.752;2023-12-22T12:51:40;4.38;;;1.00;;
25870;SDS011;13689;48.590;7.752;2023-12-22T12:54:08;1.75;;;0.40;;
25870;SDS011;13689;48.590;7.752;2023-12-22T12:56:40;1.80;;;0.43;;
25870;SDS011;13689;48.590;7.752;2023-12-22T12:59:08;2.47;;;0.50;;
25870;SDS011;13689;48.590;7.752;2023-12-22T13:01:37;3.20;;;0.50;;
25870;SDS011;13689;48.590;7.752;2023-12-22T13:04:06;0.88;;;0.40;;
25870;SDS011;13689;48.590;7.752;2023-12-22T13:06:32;0.90;;;0.52;;
25870;SDS011;13689;48.590;7.752;2023-12-22T13:08:58;0.82;;;0.50;;
25870;SDS011;13689;48.590;7.752;2023-12-22T13:11:27;1.20;;;0.40;;
25870;SDS011;13689;48.590;7.752;2023-12-22T13:13:56;4.15;;;0.50;;
25870;SDS011;13689;48.590;7.752;2023-12-22T13:16:23;2.90;;;0.60;;
25870;SDS011;13689;48.590;7.752;2023-12-22T13:18:55;1.55;;;0.43;;
25870;SDS011;13689;48.590;7.752;2023-12-22T13:21:22;1.42;;;0.43;;
25870;SDS011;13689;48.590;7.752;2023-12-22T13:24:11;2.17;;;0.55;;
25870;SDS011;13689;48.590;7.752;2023-12-22T13:26:38;1.45;;;0.50;;
25870;SDS011;13689;48.590;7.752;2023-12-22T13:29:05;0.80;;;0.50;;
25870;SDS011;13689;48.590;7.752;2023-12-22T13:31:31;2.65;;;0.50;;
25870;SDS011;13689;48.590;7.752;2023-12-22T13:33:58;0.50;;;0.40;;
25870;SDS011;13689;48.590;7.752;2023-12-22T13:36:24;0.40;;;0.40;;
25870;SDS011;13689;48.590;7.752;2023-12-22T13:38:50;0.52;;;0.52;;
25870;SDS011;13689;48.590;7.752;2023-12-22T13:41:16;3.95;;;0.60;;
25870;SDS011;13689;48.590;7.752;2023-12-22T13:43:42;0.90;;;0.73;;
25870;SDS011;13689;48.590;7.752;2023-12-22T13:46:14;0.80;;;0.70;;
25870;SDS011;13689;48.590;7.752;2023-12-22T13:48:40;1.17;;;1.10;;
25870;SDS011;13689;48.590;7.752;2023-12-22T13:51:06;0.68;;;0.50;;
25870;SDS011;13689;48.590;7.752;2023-12-22T13:53:31;3.30;;;0.47;;
25870;SDS011;13689;48.590;7.752;2023-12-22T13:56:00;0.50;;;0.35;;
25870;SDS011;13689;48.590;7.752;2023-12-22T13:58:26;0.40;;;0.30;;
25870;SDS011;13689;48.590;7.752;2023-12-22T14:00:53;5.97;;;0.47;;
25870;SDS011;13689;48.590;7.752;2023-12-22T14:03:19;1.53;;;0.40;;
25870;SDS011;13689;48.590;7.752;2023-12-22T14:05:48;1.38;;;0.45;;
25870;SDS011;13689;48.590;7.752;2023-12-22T14:08:14;2.38;;;0.40;;
25870;SDS011;13689;48.590;7.752;2023-12-22T14:10:50;1.67;;;0.40;;
25870;SDS011;13689;48.590;7.752;2023-12-22T14:13:15;0.98;;;0.50;;
25870;SDS011;13689;48.590;7.752;2023-12-22T14:15:41;2.20;;;0.40;;
25870;SDS011;13689;48.590;7.752;2023-12-22T14:18:08;2.60;;;0.60;;
25870;SDS011;13689;48.590;7.752;2023-12-22T14:20:34;1.20;;;0.52;;
25870;SDS011;13689;48.590;7.752;2023-12-22T14:23:00;0.40;;;0.40;;
25870;SDS011;13689;48.590;7.752;2023-12-22T14:25:25;3.05;;;0.80;;
25870;SDS011;13689;48.590;7.752;2023-12-22T14:27:52;2.20;;;0.50;;
25870;SDS011;13689;48.590;7.752;2023-12-22T14:30:22;1.25;;;0.50;;
25870;SDS011;13689;48.590;7.752;2023-12-22T14:32:48;3.10;;;0.50;;
25870;SDS011;13689;48.590;7.752;2023-12-22T14:35:13;2.70;;;0.40;;
25870;SDS011;13689;48.590;7.752;2023-12-22T14:37:39;3.72;;;0.88;;
25870;SDS011;13689;48.590;7.752;2023-12-22T14:40:05;1.05;;;0.45;;
25870;SDS011;13689;48.590;7.752;2023-12-22T14:42:31;0.77;;;0.63;;
25870;SDS011;13689;48.590;7.752;2023-12-22T14:44:57;1.38;;;0.50;;
25870;SDS011;13689;48.590;7.752;2023-12-22T14:47:23;2.88;;;0.80;;
25870;SDS011;13689;48.590;7.752;2023-12-22T14:49:49;3.60;;;0.47;;
25870;SDS011;13689;48.590;7.752;2023-12-22T14:52:14;0.75;;;0.60;;
25870;SDS011;13689;48.590;7.752;2023-12-22T14:54:40;2.85;;;0.60;;
25870;SDS011;13689;48.590;7.752;2023-12-22T14:57:06;2.47;;;0.80;;